createdAt,value
2022-09-29T00:01:46.838Z,7.50
2022-09-29T00:05:08.902Z,7.40
2022-09-29T00:08:31.883Z,7.40
2022-09-29T00:11:54.255Z,7.30
2022-09-29T00:15:15.921Z,7.30
2022-09-29T00:18:37.568Z,7.20
2022-09-29T00:21:59.260Z,7.20
2022-09-29T00:25:22.304Z,7.20
2022-09-29T00:28:46.132Z,7.30
2022-09-29T00:32:07.820Z,7.30
2022-09-29T00:35:29.396Z,7.30
2022-09-29T00:38:51.246Z,7.40
2022-09-29T00:42:17.106Z,7.40
2022-09-29T00:45:38.886Z,7.40
2022-09-29T00:49:02.866Z,7.40
2022-09-29T00:52:26.390Z,7.40
2022-09-29T00:55:49.199Z,7.40
2022-09-29T00:59:16.396Z,7.40
2022-09-29T01:02:40.675Z,7.40
2022-09-29T01:06:06.186Z,7.50
2022-09-29T01:09:29.913Z,7.50
2022-09-29T01:12:51.638Z,7.60
2022-09-29T01:16:14.665Z,7.60
2022-09-29T01:19:51.580Z,7.60
2022-09-29T01:23:28.165Z,7.60
2022-09-29T01:27:04.967Z,7.60
2022-09-29T01:30:36.345Z,7.60
2022-09-29T01:34:00.230Z,7.70
2022-09-29T01:37:26.477Z,7.80
2022-09-29T01:40:50.615Z,7.80
2022-09-29T01:44:16.624Z,7.80
2022-09-29T01:47:40.486Z,7.70
2022-09-29T01:51:04.929Z,7.70
2022-09-29T01:54:29.004Z,7.60
2022-09-29T01:57:52.835Z,7.60
2022-09-29T02:01:16.041Z,7.60
2022-09-29T02:04:41.395Z,7.60
2022-09-29T02:08:07.385Z,7.70
2022-09-29T02:11:30.691Z,7.70
2022-09-29T02:14:53.228Z,7.80
2022-09-29T02:18:17.559Z,7.80
2022-09-29T02:21:40.601Z,7.80
2022-09-29T02:25:02.905Z,7.90
2022-09-29T02:28:24.711Z,7.80
2022-09-29T02:31:47.100Z,7.90
2022-09-29T02:35:09.975Z,7.90
2022-09-29T02:38:40.489Z,7.90
2022-09-29T02:42:07.379Z,7.90
2022-09-29T02:45:33.340Z,7.90
2022-09-29T02:49:12.712Z,7.90
2022-09-29T02:52:40.828Z,7.90
2022-09-29T02:56:07.571Z,7.90
2022-09-29T02:59:32.424Z,7.90
2022-09-29T03:02:53.998Z,7.90
2022-09-29T03:06:16.406Z,7.90
2022-09-29T03:09:37.987Z,7.90
2022-09-29T03:13:00.920Z,7.90
2022-09-29T03:16:22.595Z,7.80
2022-09-29T03:19:44.223Z,7.80
2022-09-29T03:23:05.782Z,7.70
2022-09-29T03:26:27.385Z,7.60
2022-09-29T03:29:50.292Z,7.50
2022-09-29T03:33:12.002Z,7.40
2022-09-29T03:36:33.562Z,7.30
2022-09-29T03:39:55.425Z,7.20
2022-09-29T03:43:17.156Z,7.20
2022-09-29T03:46:40.068Z,7.10
2022-09-29T03:50:01.696Z,7.10
2022-09-29T03:53:23.271Z,7.00
2022-09-29T03:56:44.931Z,7.00
2022-09-29T04:00:07.205Z,6.90
2022-09-29T04:03:30.101Z,6.80
2022-09-29T04:06:51.644Z,6.70
2022-09-29T04:10:13.390Z,6.60
2022-09-29T04:13:35.070Z,6.60
2022-09-29T04:16:56.619Z,6.50
2022-09-29T04:20:19.528Z,6.50
2022-09-29T04:23:41.101Z,6.40
2022-09-29T04:27:02.704Z,6.40
2022-09-29T04:30:24.243Z,6.40
2022-09-29T04:33:45.796Z,6.30
2022-09-29T04:37:09.194Z,6.30
2022-09-29T04:40:30.893Z,6.20
2022-09-29T04:43:52.501Z,6.30
2022-09-29T04:47:14.092Z,6.30
2022-09-29T04:50:35.649Z,6.30
2022-09-29T04:53:58.940Z,6.20
2022-09-29T04:57:20.524Z,6.20
2022-09-29T05:00:42.098Z,6.30
2022-09-29T05:04:03.753Z,6.30
2022-09-29T05:07:25.344Z,6.30
2022-09-29T05:10:48.243Z,6.30
2022-09-29T05:14:10.140Z,6.30
2022-09-29T05:17:31.688Z,6.30
2022-09-29T05:21:15.779Z,6.30
2022-09-29T05:24:34.915Z,6.30
2022-09-29T05:27:57.835Z,6.40
2022-09-29T05:31:19.523Z,6.40
2022-09-29T05:34:41.127Z,6.50
2022-09-29T05:38:02.830Z,6.50
2022-09-29T05:41:24.485Z,6.50
2022-09-29T05:44:47.409Z,6.50
2022-09-29T05:48:08.973Z,6.50
2022-09-29T05:51:30.642Z,6.50
2022-09-29T05:54:52.222Z,6.50
2022-09-29T05:58:13.954Z,6.40
2022-09-29T06:01:36.923Z,6.50
2022-09-29T06:04:58.535Z,6.60
2022-09-29T06:08:20.087Z,6.70
2022-09-29T06:11:41.726Z,6.80
2022-09-29T06:15:03.652Z,6.90
2022-09-29T06:18:26.584Z,6.90
2022-09-29T06:21:48.153Z,7.00
2022-09-29T06:25:09.882Z,7.10
2022-09-29T06:28:31.741Z,7.20
2022-09-29T06:31:53.306Z,7.40
2022-09-29T06:35:16.330Z,7.60
2022-09-29T06:38:38.025Z,7.90
2022-09-29T06:41:59.597Z,8.10
2022-09-29T06:45:22.280Z,8.30
2022-09-29T06:48:44.751Z,8.40
2022-09-29T06:52:18.241Z,8.50
2022-09-29T06:55:41.817Z,8.50
2022-09-29T06:59:03.785Z,8.60
2022-09-29T07:02:25.438Z,8.60
2022-09-29T07:06:01.983Z,8.70
2022-09-29T07:09:29.975Z,8.80
2022-09-29T07:12:51.694Z,8.90
2022-09-29T07:16:14.041Z,9.00
2022-09-29T07:19:35.598Z,9.10
2022-09-29T07:22:57.230Z,9.10
2022-09-29T07:26:20.168Z,9.20
2022-09-29T07:29:41.957Z,9.40
2022-09-29T07:33:03.837Z,9.50
2022-09-29T07:36:25.511Z,9.60
2022-09-29T07:39:47.073Z,9.70
2022-09-29T07:43:09.980Z,9.80
2022-09-29T07:46:31.563Z,10.10
2022-09-29T07:49:53.137Z,10.30
2022-09-29T07:53:14.901Z,10.30
2022-09-29T07:56:36.596Z,10.10
2022-09-29T07:59:59.532Z,10.30
2022-09-29T08:03:21.085Z,10.50
2022-09-29T08:06:42.664Z,10.80
2022-09-29T08:10:15.992Z,10.80
2022-09-29T08:13:38.833Z,10.80
2022-09-29T08:17:02.081Z,11.00
2022-09-29T08:20:23.698Z,11.20
2022-09-29T08:23:45.265Z,11.40
2022-09-29T08:27:16.676Z,11.80
2022-09-29T08:30:40.008Z,12.40
2022-09-29T08:34:02.932Z,12.80
2022-09-29T08:37:24.469Z,13.00
2022-09-29T08:40:46.144Z,13.10
2022-09-29T08:44:26.977Z,13.10
2022-09-29T08:47:57.154Z,12.80
2022-09-29T08:51:37.221Z,13.10
2022-09-29T08:55:22.180Z,13.70
2022-09-29T08:58:44.274Z,14.60
2022-09-29T09:02:19.792Z,15.10
2022-09-29T09:05:55.502Z,15.70
2022-09-29T09:09:32.392Z,16.10
2022-09-29T09:13:01.841Z,16.10
2022-09-29T09:16:28.978Z,15.90
2022-09-29T09:20:02.083Z,15.40
2022-09-29T09:23:25.556Z,15.20
2022-09-29T09:26:48.480Z,14.90
2022-09-29T09:30:13.387Z,14.90
2022-09-29T09:33:37.578Z,14.80
2022-09-29T09:37:08.046Z,14.40
2022-09-29T09:40:33.691Z,13.90
2022-09-29T09:43:58.266Z,13.70
2022-09-29T09:47:25.448Z,13.50
2022-09-29T09:50:47.200Z,13.70
2022-09-29T09:54:11.231Z,13.70
2022-09-29T09:57:47.692Z,13.50
2022-09-29T10:01:10.880Z,13.60
2022-09-29T10:04:32.775Z,14.30
2022-09-29T10:07:55.201Z,14.70
2022-09-29T10:11:22.590Z,14.90
2022-09-29T10:14:47.925Z,14.60
2022-09-29T10:18:13.663Z,14.70
2022-09-29T10:21:36.051Z,14.80
2022-09-29T10:25:05.779Z,14.90
2022-09-29T10:28:29.001Z,15.20
2022-09-29T10:32:01.636Z,15.10
2022-09-29T10:35:35.939Z,14.80
2022-09-29T10:39:02.311Z,14.80
2022-09-29T10:42:25.840Z,14.70
2022-09-29T10:45:48.138Z,14.50
2022-09-29T10:49:13.186Z,14.50
2022-09-29T10:52:36.503Z,14.40
2022-09-29T10:55:58.862Z,14.50
2022-09-29T10:59:21.037Z,14.50
2022-09-29T11:02:42.715Z,14.60
2022-09-29T11:06:05.625Z,14.40
2022-09-29T11:09:30.475Z,14.60
2022-09-29T11:12:52.083Z,14.90
2022-09-29T11:16:14.683Z,14.80
2022-09-29T11:19:36.298Z,14.80
2022-09-29T11:23:13.366Z,14.70
2022-09-29T11:26:43.256Z,14.90
2022-09-29T11:30:06.959Z,14.60
2022-09-29T11:33:31.476Z,14.60
2022-09-29T11:36:57.738Z,14.90
2022-09-29T11:40:25.019Z,15.20
2022-09-29T11:43:51.728Z,15.20
2022-09-29T11:47:17.972Z,15.20
2022-09-29T11:50:49.175Z,15.50
2022-09-29T11:54:18.679Z,15.60
2022-09-29T11:57:46.150Z,15.50
2022-09-29T12:01:16.571Z,15.50
2022-09-29T12:04:43.025Z,15.30
2022-09-29T12:08:11.127Z,15.40
2022-09-29T12:11:50.949Z,15.60
2022-09-29T12:15:29.041Z,15.80
2022-09-29T12:18:53.914Z,15.90
2022-09-29T12:22:17.574Z,15.70
2022-09-29T12:25:40.758Z,15.50
2022-09-29T12:29:05.823Z,15.50
2022-09-29T12:32:29.243Z,15.40
2022-09-29T12:35:55.434Z,15.50
2022-09-29T12:39:24.103Z,15.50
2022-09-29T12:42:55.380Z,15.70
2022-09-29T12:46:19.716Z,15.70
2022-09-29T12:49:48.517Z,15.50
2022-09-29T12:56:38.247Z,15.10
2022-09-29T13:00:01.988Z,15.20
2022-09-29T13:03:47.218Z,15.10
2022-09-29T13:07:20.660Z,15.10
2022-09-29T13:10:57.098Z,15.20
2022-09-29T13:14:30.349Z,15.50
2022-09-29T13:18:03.006Z,15.60
2022-09-29T13:21:27.244Z,15.60
2022-09-29T13:24:53.750Z,15.40
2022-09-29T13:28:22.848Z,15.30
2022-09-29T13:31:46.205Z,15.40
2022-09-29T13:35:12.457Z,15.20
2022-09-29T13:38:36.977Z,15.30
2022-09-29T13:42:18.538Z,15.40
2022-09-29T13:45:41.461Z,15.50
2022-09-29T13:49:12.827Z,15.50
2022-09-29T13:52:38.538Z,15.60
2022-09-29T13:56:09.600Z,15.60
2022-09-29T13:59:31.260Z,15.70
2022-09-29T14:03:03.434Z,15.70
2022-09-29T14:06:40.585Z,15.50
2022-09-29T14:10:05.476Z,15.40
2022-09-29T14:13:28.737Z,15.40
2022-09-29T14:16:52.809Z,15.50
2022-09-29T14:20:16.458Z,15.40
2022-09-29T14:23:50.395Z,15.20
2022-09-29T14:27:31.866Z,15.10
2022-09-29T14:30:55.125Z,15.00
2022-09-29T14:34:18.046Z,14.90
2022-09-29T14:37:39.759Z,14.90
2022-09-29T14:41:03.941Z,14.90
2022-09-29T14:44:26.818Z,14.90
2022-09-29T14:51:22.093Z,14.90
2022-09-29T14:54:47.218Z,14.90
2022-09-29T14:58:30.350Z,15.00
2022-09-29T15:02:02.024Z,14.90
2022-09-29T15:05:30.565Z,14.90
2022-09-29T15:08:54.283Z,14.70
2022-09-29T15:12:16.739Z,14.60
2022-09-29T15:15:41.093Z,14.60
2022-09-29T15:19:09.648Z,14.50
2022-09-29T15:22:40.850Z,14.50
2022-09-29T15:26:02.439Z,14.30
2022-09-29T15:29:24.428Z,14.30
2022-09-29T15:32:48.421Z,14.30
2022-09-29T15:36:17.509Z,14.20
2022-09-29T15:39:43.840Z,14.00
2022-09-29T15:43:18.900Z,13.90
2022-09-29T15:46:46.839Z,13.90
2022-09-29T15:50:18.039Z,13.80
2022-09-29T15:53:39.660Z,13.80
2022-09-29T15:57:01.559Z,13.70
2022-09-29T16:00:42.103Z,13.60
2022-09-29T16:07:37.954Z,13.50
2022-09-29T16:11:00.905Z,13.40
2022-09-29T16:14:24.764Z,13.30
2022-09-29T16:17:47.499Z,13.30
2022-09-29T16:21:10.443Z,13.20
2022-09-29T16:24:35.184Z,13.20
2022-09-29T16:27:58.009Z,13.20
2022-09-29T16:31:20.409Z,13.00
2022-09-29T16:34:42.058Z,12.90
2022-09-29T16:38:09.196Z,12.80
2022-09-29T16:41:32.685Z,12.70
2022-09-29T16:44:55.520Z,12.60
2022-09-29T16:48:17.232Z,12.60
2022-09-29T16:51:42.371Z,12.50
2022-09-29T16:55:15.798Z,12.40
2022-09-29T16:58:38.683Z,12.40
2022-09-29T17:02:05.311Z,12.30
2022-09-29T17:05:27.735Z,12.30
2022-09-29T17:08:52.505Z,12.20
2022-09-29T17:12:15.034Z,12.10
2022-09-29T17:15:38.611Z,12.10
2022-09-29T17:19:00.179Z,12.00
2022-09-29T17:22:27.314Z,11.90
2022-09-29T17:25:49.410Z,11.80
2022-09-29T17:29:11.001Z,11.70
2022-09-29T17:32:33.936Z,11.60
2022-09-29T17:35:56.176Z,11.50
2022-09-29T17:39:17.957Z,11.40
2022-09-29T17:42:39.535Z,11.30
2022-09-29T17:46:01.200Z,11.30
2022-09-29T17:49:24.193Z,11.20
2022-09-29T17:52:45.789Z,11.10
2022-09-29T17:56:15.407Z,11.10
2022-09-29T17:59:36.963Z,11.00
2022-09-29T18:02:58.646Z,11.00
2022-09-29T18:06:22.216Z,10.90
2022-09-29T18:09:43.866Z,10.80
2022-09-29T18:13:05.595Z,10.80
2022-09-29T18:16:27.227Z,10.90
2022-09-29T18:19:48.829Z,10.90
2022-09-29T18:23:12.152Z,11.00
2022-09-29T18:26:33.717Z,11.00
2022-09-29T18:29:55.774Z,11.00
2022-09-29T18:33:18.414Z,11.00
2022-09-29T18:40:08.636Z,10.90
2022-09-29T18:43:30.578Z,10.80
2022-09-29T18:46:52.414Z,10.80
2022-09-29T18:50:15.021Z,10.80
2022-09-29T18:53:36.582Z,10.90
2022-09-29T18:56:59.515Z,10.90
2022-09-29T19:00:21.641Z,11.00
2022-09-29T19:03:43.224Z,11.00
2022-09-29T19:07:04.916Z,11.00
2022-09-29T19:10:27.084Z,10.90
2022-09-29T19:13:50.923Z,10.90
2022-09-29T19:17:12.530Z,10.80
2022-09-29T19:20:34.961Z,10.80
2022-09-29T19:23:56.628Z,10.80
2022-09-29T19:27:18.678Z,10.80
2022-09-29T19:30:42.377Z,10.70
2022-09-29T19:34:03.980Z,10.70
2022-09-29T19:37:25.577Z,10.70
2022-09-29T19:40:47.737Z,10.70
2022-09-29T19:44:09.315Z,10.70
2022-09-29T19:47:32.497Z,10.60
2022-09-29T19:50:57.227Z,10.60
2022-09-29T19:54:19.549Z,10.60
2022-09-29T19:57:41.248Z,10.50
2022-09-29T20:01:02.830Z,10.50
2022-09-29T20:04:29.771Z,10.50
2022-09-29T20:07:51.628Z,10.40
2022-09-29T20:11:13.385Z,10.40
2022-09-29T20:14:34.966Z,10.30
2022-09-29T20:17:56.512Z,10.20
2022-09-29T20:21:19.415Z,10.10
2022-09-29T20:24:41.087Z,10.00
2022-09-29T20:28:02.682Z,9.90
2022-09-29T20:31:24.282Z,9.80
2022-09-29T20:34:46.325Z,9.70
2022-09-29T20:38:09.219Z,9.60
2022-09-29T20:41:31.098Z,9.50
2022-09-29T20:44:52.659Z,9.60
2022-09-29T20:48:14.179Z,9.50
2022-09-29T20:51:38.039Z,9.40
2022-09-29T20:55:01.134Z,9.40
2022-09-29T20:58:22.947Z,9.30
2022-09-29T21:01:45.020Z,9.20
2022-09-29T21:05:06.947Z,9.10
2022-09-29T21:08:28.521Z,9.00
2022-09-29T21:11:52.416Z,8.90
2022-09-29T21:15:14.038Z,8.90
2022-09-29T21:18:35.626Z,8.80
2022-09-29T21:21:57.207Z,8.80
2022-09-29T21:25:18.777Z,8.70
2022-09-29T21:28:42.509Z,8.70
2022-09-29T21:32:04.146Z,8.70
2022-09-29T21:35:25.748Z,8.70
2022-09-29T21:38:47.319Z,8.70
2022-09-29T21:42:08.864Z,8.70
2022-09-29T21:45:31.784Z,8.60
2022-09-29T21:48:53.601Z,8.50
2022-09-29T21:52:15.186Z,8.50
2022-09-29T21:55:40.631Z,8.40
2022-09-29T21:59:02.179Z,8.30
2022-09-29T22:02:25.136Z,8.30
2022-09-29T22:05:46.802Z,8.30
2022-09-29T22:09:08.956Z,8.20
2022-09-29T22:12:30.619Z,8.20
2022-09-29T22:15:52.285Z,8.10
2022-09-29T22:19:32.780Z,8.00
2022-09-29T22:22:54.447Z,8.00
2022-09-29T22:26:16.836Z,8.00
2022-09-29T22:29:38.401Z,8.00
2022-09-29T22:32:59.931Z,8.00
2022-09-29T22:36:23.021Z,7.90
2022-09-29T22:39:44.557Z,7.90
2022-09-29T22:43:06.684Z,7.90
2022-09-29T22:46:29.558Z,7.80
2022-09-29T22:49:51.200Z,7.70
2022-09-29T22:53:14.903Z,7.70
2022-09-29T22:56:36.493Z,7.60
2022-09-29T22:59:58.065Z,7.60
2022-09-29T23:03:19.612Z,7.50
2022-09-29T23:06:41.168Z,7.50
2022-09-29T23:10:04.968Z,7.50
2022-09-29T23:13:26.581Z,7.50
2022-09-29T23:16:48.371Z,7.40
2022-09-29T23:20:10.427Z,7.30
2022-09-29T23:23:32.363Z,7.20
2022-09-29T23:26:55.255Z,7.20
2022-09-29T23:30:16.905Z,7.20
2022-09-29T23:33:38.462Z,7.20
2022-09-29T23:37:00.771Z,7.20
2022-09-29T23:40:22.315Z,7.30
2022-09-29T23:43:45.221Z,7.40
2022-09-29T23:47:09.215Z,7.50
2022-09-29T23:50:30.922Z,7.50
2022-09-29T23:53:52.560Z,7.60
2022-09-29T23:57:14.119Z,7.60
